Time;durP1;ratioP1;P1;durP2;ratioP2;P2;SDS_P1;SDS_P2;PMS_P1;PMS_P2;Temp;Humidity;BMP_temperature;BMP_pressure;BME280_temperature;BME280_humidity;BME280_pressure;Samples;Min_cycle;Max_cycle;Signal;HPM_P1;HPM_P2
2023/01/28 00:02:35;;;;;;;27.30;12.70;;;;;;;-2.10;100.00;101082.61;109127;1254;69968;-82
2023/01/28 00:05:25;;;;;;;30.40;13.70;;;;;;;-2.15;100.00;101086.73;109152;1254;72668;-83
2023/01/28 00:08:14;;;;;;;32.50;13.50;;;;;;;-2.17;100.00;101090.38;108986;1254;60373;-82
2023/01/28 00:11:04;;;;;;;29.10;11.90;;;;;;;-2.21;100.00;101085.11;109160;1257;60605;-82
2023/01/28 00:13:53;;;;;;;23.80;11.40;;;;;;;-2.26;100.00;101084.81;109153;1254;75067;-82
2023/01/28 00:16:42;;;;;;;27.80;11.40;;;;;;;-2.32;100.00;101089.62;109173;1255;68765;-82
2023/01/28 00:19:32;;;;;;;24.30;11.30;;;;;;;-2.37;100.00;101095.58;109241;1254;73183;-83
2023/01/28 00:22:21;;;;;;;26.90;12.30;;;;;;;-2.50;100.00;101093.73;109000;1254;59255;-82
2023/01/28 00:25:10;;;;;;;28.00;12.40;;;;;;;-2.59;100.00;101092.79;109163;1254;61316;-82
2023/01/28 00:27:59;;;;;;;28.40;12.20;;;;;;;-2.72;100.00;101091.20;109177;1254;73828;-82
2023/01/28 00:30:47;;;;;;;23.70;11.30;;;;;;;-2.82;100.00;101089.34;109221;1254;69670;-82
2023/01/28 00:33:36;;;;;;;28.00;11.60;;;;;;;-2.96;100.00;101091.73;109205;1254;75125;-82
2023/01/28 00:36:25;;;;;;;29.80;12.50;;;;;;;-3.01;100.00;101091.35;109014;1255;59393;-82
2023/01/28 00:39:14;;;;;;;27.20;12.50;;;;;;;-3.10;100.00;101090.19;109070;1254;61539;-82
2023/01/28 00:42:03;;;;;;;35.80;12.70;;;;;;;-3.19;100.00;101087.02;109166;1254;74836;-82
2023/01/28 00:44:52;;;;;;;30.80;12.60;;;;;;;-3.29;100.00;101083.79;109165;1254;69694;-82
2023/01/28 00:47:41;;;;;;;30.00;12.00;;;;;;;-3.38;100.00;101084.28;109212;1253;72675;-82
2023/01/28 00:50:30;;;;;;;33.70;14.10;;;;;;;-3.45;100.00;101084.38;109174;1255;60815;-82
2023/01/28 00:53:19;;;;;;;23.20;11.50;;;;;;;-3.51;100.00;101082.39;108980;1254;61183;-82
2023/01/28 00:56:11;;;;;;;30.80;13.50;;;;;;;-3.57;100.00;101082.08;109204;1254;74703;-82
2023/01/28 00:58:59;;;;;;;26.60;11.40;;;;;;;-3.66;100.00;101084.05;109041;1254;68811;-81
2023/01/28 01:01:49;;;;;;;29.90;13.00;;;;;;;-3.75;100.00;101083.25;109153;1254;72678;-82
2023/01/28 01:04:38;;;;;;;25.70;12.40;;;;;;;-3.80;100.00;101084.89;109175;1255;59321;-82
2023/01/28 01:07:33;;;;;;;30.40;11.50;;;;;;;-3.84;100.00;101089.03;109185;1254;60175;-82
2023/01/28 01:10:22;;;;;;;36.30;14.70;;;;;;;-3.89;100.00;101101.00;109136;1254;73540;-82
2023/01/28 01:13:11;;;;;;;28.50;12.50;;;;;;;-3.96;100.00;101096.73;109147;1254;69732;-82
2023/01/28 01:16:03;;;;;;;35.60;13.60;;;;;;;-4.05;100.00;101088.63;109012;1254;72921;-82
2023/01/28 01:18:53;;;;;;;39.70;15.70;;;;;;;-4.13;100.00;101087.73;109151;1254;59233;-82
2023/01/28 01:21:41;;;;;;;35.70;15.40;;;;;;;-4.20;100.00;101092.52;109187;1254;60315;-83
2023/01/28 01:24:33;;;;;;;31.00;10.90;;;;;;;-4.23;100.00;101090.14;109031;1254;75153;-82
2023/01/28 01:27:22;;;;;;;34.40;14.20;;;;;;;-4.21;100.00;101088.48;109028;1254;68732;-83
2023/01/28 01:30:12;;;;;;;37.90;14.30;;;;;;;-4.16;100.00;101084.24;109165;1254;73615;-82
2023/01/28 01:33:01;;;;;;;30.30;13.70;;;;;;;-4.21;100.00;101081.37;109084;1254;61465;-82
2023/01/28 01:35:56;;;;;;;32.10;13.50;;;;;;;-4.20;100.00;101083.23;109018;1254;63224;-82
2023/01/28 01:38:47;;;;;;;35.30;12.60;;;;;;;-4.33;100.00;101083.54;109137;1255;75452;-82
2023/01/28 01:41:36;;;;;;;32.70;13.10;;;;;;;-4.35;100.00;101080.23;109176;1258;68822;-82
2023/01/28 01:44:58;;;;;;;32.20;13.40;;;;;;;-4.37;100.00;101077.59;109046;1254;73797;-82
2023/01/28 01:48:05;;;;;;;27.00;10.70;;;;;;;-4.48;100.00;101075.36;109188;1254;60390;-82
2023/01/28 01:51:11;;;;;;;32.50;13.60;;;;;;;-4.54;100.00;101077.62;109055;1254;61745;-82
2023/01/28 01:54:01;;;;;;;29.50;11.80;;;;;;;-4.62;100.00;101082.02;109174;1255;74882;-82
2023/01/28 01:56:50;;;;;;;33.70;13.30;;;;;;;-4.64;100.00;101085.61;109194;1254;69692;-82
2023/01/28 01:59:39;;;;;;;29.70;12.70;;;;;;;-4.66;100.00;101085.34;109044;1254;72677;-82
2023/01/28 02:02:28;;;;;;;30.60;11.90;;;;;;;-4.68;100.00;101084.59;109029;1254;59112;-82
2023/01/28 02:05:19;;;;;;;25.70;11.80;;;;;;;-4.78;100.00;101084.58;109171;1254;60493;-82
2023/01/28 02:08:24;;;;;;;34.20;13.90;;;;;;;-4.79;100.00;101089.41;109072;1254;73570;-82
2023/01/28 02:11:13;;;;;;;26.40;11.90;;;;;;;-4.86;100.00;101093.45;109087;1255;70914;-82
2023/01/28 02:14:02;;;;;;;30.90;10.10;;;;;;;-4.91;100.00;101097.55;109127;1254;73819;-82
2023/01/28 02:16:51;;;;;;;29.40;11.40;;;;;;;-4.98;100.00;101101.13;109021;1256;61158;-82
2023/01/28 02:19:50;;;;;;;32.50;13.00;;;;;;;-4.96;100.00;101097.73;108962;1255;61610;-82
2023/01/28 02:22:58;;;;;;;27.70;11.50;;;;;;;-4.93;100.00;101098.16;109032;1255;74845;-82
2023/01/28 02:26:18;;;;;;;34.00;12.90;;;;;;;-4.93;100.00;101104.23;109046;1254;68768;-82
2023/01/28 02:29:43;;;;;;;27.30;11.40;;;;;;;-4.93;100.00;101103.50;108981;1255;73445;-82
2023/01/28 02:32:37;;;;;;;28.50;13.80;;;;;;;-4.90;100.00;101099.79;108976;1254;61405;-82
2023/01/28 02:35:49;;;;;;;29.40;12.30;;;;;;;-4.89;100.00;101099.48;109035;1254;60275;-82
2023/01/28 02:38:44;;;;;;;32.50;12.60;;;;;;;-4.90;100.00;101109.58;109192;1254;74143;-82
2023/01/28 02:41:40;;;;;;;34.30;13.30;;;;;;;-4.84;100.00;101108.44;109021;1254;68717;-82
2023/01/28 02:44:29;;;;;;;33.10;14.30;;;;;;;-4.82;100.00;101101.45;108917;1258;71662;-82
2023/01/28 02:50:34;;;;;;;36.20;14.00;;;;;;;-4.80;100.00;101087.52;109048;1254;60035;-82
2023/01/28 02:53:42;;;;;;;39.00;14.70;;;;;;;-4.69;100.00;101088.83;108976;1254;73542;-82
2023/01/28 02:56:43;;;;;;;34.50;15.60;;;;;;;-4.69;100.00;101084.59;109094;1253;69555;-82
2023/01/28 02:59:36;;;;;;;32.40;14.00;;;;;;;-4.71;100.00;101078.42;108983;1254;73694;-83
2023/01/28 03:02:49;;;;;;;27.00;11.50;;;;;;;-4.71;100.00;101072.77;108975;1254;59561;-82
2023/01/28 03:05:57;;;;;;;34.20;12.90;;;;;;;-4.67;100.00;101068.40;108962;1256;61726;-82
2023/01/28 03:37:41;;;;;;;31.80;13.70;;;;;;;-4.54;100.00;101069.27;108994;1254;60035;-82
2023/01/28 03:40:35;;;;;;;35.10;14.70;;;;;;;-4.65;100.00;101063.14;108981;1254;74642;-83
2023/01/28 03:43:24;;;;;;;35.20;14.30;;;;;;;-4.65;100.00;101055.90;108972;1254;68544;-82
2023/01/28 03:46:13;;;;;;;33.90;13.60;;;;;;;-4.68;100.00;101052.63;108986;1254;74338;-82
2023/01/28 03:49:02;;;;;;;26.50;10.90;;;;;;;-4.67;100.00;101054.33;109134;1254;59585;-82
2023/01/28 03:51:51;;;;;;;27.10;11.10;;;;;;;-4.66;100.00;101056.02;109152;1255;60002;-82
2023/01/28 03:54:39;;;;;;;28.60;13.00;;;;;;;-4.81;100.00;101058.27;108964;1256;72790;-82
2023/01/28 03:57:30;;;;;;;36.80;14.20;;;;;;;-4.84;100.00;101067.86;109040;1257;68835;-82
2023/01/28 04:00:20;;;;;;;28.00;13.60;;;;;;;-4.85;100.00;101066.07;109163;1254;72665;-83
2023/01/28 04:03:16;;;;;;;35.70;14.70;;;;;;;-4.88;100.00;101067.02;109062;1255;59517;-83
2023/01/28 04:06:12;;;;;;;31.80;12.40;;;;;;;-4.92;100.00;101066.63;109026;1254;60453;-82
2023/01/28 04:09:22;;;;;;;37.50;14.60;;;;;;;-4.96;100.00;101061.87;109005;1254;74920;-82
2023/01/28 04:12:38;;;;;;;41.20;15.70;;;;;;;-4.94;100.00;101061.41;109035;1254;69638;-82
2023/01/28 04:15:29;;;;;;;39.20;14.40;;;;;;;-4.92;100.00;101058.26;108969;1254;73293;-83
2023/01/28 04:18:26;;;;;;;29.60;13.70;;;;;;;-4.93;100.00;101055.10;109031;1254;59627;-82
2023/01/28 04:21:16;;;;;;;30.40;12.80;;;;;;;-4.99;100.00;101057.34;109079;1255;59349;-82
2023/01/28 04:24:05;;;;;;;36.30;15.90;;;;;;;-5.03;100.00;101060.83;109058;1254;75066;-82
2023/01/28 04:26:54;;;;;;;42.00;16.40;;;;;;;-5.01;100.00;101060.40;109036;1255;69598;-83
2023/01/28 04:29:44;;;;;;;39.70;15.80;;;;;;;-4.96;100.00;101066.55;109093;1254;72231;-83
2023/01/28 04:32:55;;;;;;;44.90;17.40;;;;;;;-4.93;100.00;101074.75;109114;1254;62609;-83
2023/01/28 04:35:58;;;;;;;29.80;14.50;;;;;;;-4.96;100.00;101076.67;109017;1256;61549;-83
2023/01/28 04:39:02;;;;;;;39.30;14.80;;;;;;;-4.89;100.00;101072.09;109106;1256;74693;-83
2023/01/28 04:41:56;;;;;;;42.50;16.80;;;;;;;-4.83;100.00;101077.00;109085;1254;69347;-83
2023/01/28 04:44:59;;;;;;;37.10;13.80;;;;;;;-4.81;100.00;101082.98;108876;1255;71408;-83
2023/01/28 04:48:06;;;;;;;31.50;12.80;;;;;;;-4.76;100.00;101085.99;108966;1255;58495;-83
2023/01/28 04:51:16;;;;;;;34.00;14.10;;;;;;;-4.84;100.00;101086.33;109070;1256;60343;-83
2023/01/28 04:54:29;;;;;;;;;;;;;;;-4.80;100.00;101090.57;109001;1254;73868;-83
2023/01/28 04:57:23;;;;;;;35.20;14.40;;;;;;;-4.78;100.00;101095.48;109059;1256;68758;-83
2023/01/28 05:00:12;;;;;;;36.30;15.00;;;;;;;-4.70;100.00;101102.16;108993;1256;73843;-83
2023/01/28 05:03:01;;;;;;;39.60;16.00;;;;;;;-4.67;100.00;101105.52;109021;1254;62540;-83
2023/01/28 05:05:50;;;;;;;43.70;16.40;;;;;;;-4.60;100.00;101113.52;109025;1256;61363;-83
2023/01/28 05:08:48;;;;;;;43.60;14.80;;;;;;;-4.58;100.00;101109.81;109018;1254;74989;-84
2023/01/28 05:11:37;;;;;;;28.60;12.70;;;;;;;-4.56;100.00;101112.02;109018;1258;68510;-83
2023/01/28 05:14:28;;;;;;;40.30;14.10;;;;;;;-4.38;100.00;101111.81;109012;1254;73860;-83
2023/01/28 05:17:23;;;;;;;40.00;15.20;;;;;;;-4.28;100.00;101118.60;109090;1256;59589;-83
2023/01/28 05:20:13;;;;;;;35.40;15.10;;;;;;;-4.25;100.00;101116.73;109102;1255;61277;-83
2023/01/28 05:23:01;;;;;;;43.70;16.50;;;;;;;-4.25;100.00;101118.63;109041;1255;75267;-83
2023/01/28 05:26:03;;;;;;;38.20;16.10;;;;;;;-4.22;100.00;101120.10;109097;1254;69272;-83
2023/01/28 05:28:51;;;;;;;53.30;20.70;;;;;;;-4.17;100.00;101126.34;109068;1255;74175;-83
2023/01/28 05:31:40;;;;;;;36.50;15.40;;;;;;;-4.19;100.00;101129.55;109129;1253;62018;-83
2023/01/28 05:34:29;;;;;;;36.50;15.60;;;;;;;-4.24;100.00;101128.11;109157;1254;60525;-83
2023/01/28 05:37:21;;;;;;;41.40;16.00;;;;;;;-4.16;100.00;101126.20;109083;1256;73810;-83
2023/01/28 05:40:13;;;;;;;36.00;15.00;;;;;;;-4.20;100.00;101128.58;108972;1256;69442;-83
2023/01/28 05:43:03;;;;;;;35.60;14.50;;;;;;;-4.21;100.00;101135.94;109131;1258;72595;-83
2023/01/28 05:46:02;;;;;;;42.50;14.90;;;;;;;-4.20;100.00;101135.52;108968;1254;61320;-83
2023/01/28 05:49:11;;;;;;;34.70;14.10;;;;;;;-4.20;100.00;101134.86;109046;1256;60311;-83
2023/01/28 05:52:18;;;;;;;36.20;13.40;;;;;;;-4.18;100.00;101140.48;109138;1254;74825;-83
2023/01/28 05:55:07;;;;;;;42.00;15.70;;;;;;;-4.17;100.00;101133.61;108875;1258;68485;-81
2023/01/28 05:57:56;;;;;;;36.10;15.60;;;;;;;-4.20;100.00;101133.02;108968;1255;73635;-84
2023/01/28 06:00:47;;;;;;;37.00;13.90;;;;;;;-4.12;100.00;101134.85;108934;1254;60537;-83
2023/01/28 06:03:37;;;;;;;47.10;18.60;;;;;;;-4.15;100.00;101131.71;109036;1256;60022;-83
2023/01/28 06:06:26;;;;;;;41.30;17.00;;;;;;;-4.08;100.00;101132.25;108993;1256;74807;-83
2023/01/28 06:09:18;;;;;;;39.60;16.70;;;;;;;-4.06;100.00;101130.77;109010;1256;68842;-84
2023/01/28 06:12:07;;;;;;;35.00;16.40;;;;;;;-4.12;100.00;101129.45;108916;1256;73450;-83
2023/01/28 06:15:10;;;;;;;42.10;15.30;;;;;;;-4.14;100.00;101133.61;108920;1256;60353;-84
2023/01/28 06:18:20;;;;;;;41.60;17.10;;;;;;;-4.13;100.00;101136.52;108889;1256;59379;-83
2023/01/28 06:21:09;;;;;;;27.70;13.00;;;;;;;-4.09;100.00;101135.98;108904;1257;73820;-83
2023/01/28 06:23:58;;;;;;;39.20;14.20;;;;;;;-4.02;100.00;101135.14;108830;1256;255970;-82
2023/01/28 06:26:47;;;;;;;39.30;16.00;;;;;;;-3.97;100.00;101132.11;109042;1256;73532;-81
2023/01/28 06:29:36;;;;;;;40.80;17.30;;;;;;;-3.85;100.00;101128.00;108994;1256;59207;-82
2023/01/28 06:32:25;;;;;;;35.00;13.70;;;;;;;-3.76;100.00;101131.56;109166;1255;60000;-82
2023/01/28 06:35:17;;;;;;;39.20;16.00;;;;;;;-3.72;100.00;101132.76;109042;1256;74753;-82
2023/01/28 06:38:06;;;;;;;32.20;13.80;;;;;;;-3.77;100.00;101134.36;108945;1256;68507;-82
2023/01/28 06:40:54;;;;;;;35.00;14.60;;;;;;;-3.71;100.00;101130.23;108900;1256;74241;-81
2023/01/28 06:43:43;;;;;;;33.90;13.60;;;;;;;-3.76;100.00;101127.89;109041;1256;61134;-81
2023/01/28 06:46:33;;;;;;;38.80;14.60;;;;;;;-3.68;100.00;101135.02;109236;1256;61287;-82
2023/01/28 06:49:21;;;;;;;38.40;17.00;;;;;;;-3.63;100.00;101135.16;109085;1254;73890;-82
2023/01/28 06:52:10;;;;;;;39.40;14.70;;;;;;;-3.66;100.00;101131.77;108914;1256;68142;-81
2023/01/28 06:55:00;;;;;;;33.30;14.60;;;;;;;-3.67;100.00;101131.02;109089;1254;72393;-82
2023/01/28 06:57:49;;;;;;;38.60;15.40;;;;;;;-3.65;100.00;101128.41;109089;1256;61764;-82
2023/01/28 07:00:38;;;;;;;36.00;14.80;;;;;;;-3.61;100.00;101123.60;109124;1255;61305;-82
2023/01/28 07:03:27;;;;;;;39.90;16.30;;;;;;;-3.63;100.00;101121.30;109176;1254;74355;-82
2023/01/28 07:06:18;;;;;;;39.50;14.80;;;;;;;-3.64;100.00;101122.48;109124;1254;69584;-82
2023/01/28 07:09:07;;;;;;;30.50;11.60;;;;;;;-3.63;100.00;101120.02;109101;1254;73899;-82
2023/01/28 07:11:56;;;;;;;29.60;12.60;;;;;;;-3.66;100.00;101121.97;109142;1254;60533;-81
2023/01/28 07:14:45;;;;;;;31.70;13.70;;;;;;;-3.69;100.00;101128.35;109110;1255;60323;-82
2023/01/28 07:17:39;;;;;;;31.50;12.80;;;;;;;-3.62;100.00;101120.66;109109;1256;74700;-82
2023/01/28 07:20:30;;;;;;;32.20;12.50;;;;;;;-3.55;100.00;101125.59;108969;1258;68860;-82
2023/01/28 07:23:19;;;;;;;28.10;12.30;;;;;;;-3.52;100.00;101126.66;109126;1255;71464;-82
2023/01/28 07:26:08;;;;;;;29.50;13.10;;;;;;;-3.51;100.00;101121.00;109083;1254;59224;-82
2023/01/28 07:28:56;;;;;;;33.10;12.30;;;;;;;-3.54;100.00;101121.30;109161;1254;60582;-82
2023/01/28 07:31:45;;;;;;;37.30;15.20;;;;;;;-3.53;100.00;101113.85;109112;1254;73902;-82
2023/01/28 07:34:38;;;;;;;29.50;13.30;;;;;;;-3.54;100.00;101116.89;109165;1254;69792;-82
2023/01/28 07:37:27;;;;;;;31.90;12.10;;;;;;;-3.68;100.00;101117.39;109071;1253;74313;-82
2023/01/28 07:40:16;;;;;;;37.80;13.90;;;;;;;-3.80;100.00;101121.69;109130;1254;61336;-82
2023/01/28 07:43:06;;;;;;;33.30;13.50;;;;;;;-3.75;100.00;101121.91;109059;1254;61482;-82
2023/01/28 07:46:01;;;;;;;27.00;12.90;;;;;;;-3.88;100.00;101118.45;109030;1255;74805;-82
2023/01/28 07:48:50;;;;;;;29.40;12.00;;;;;;;-3.91;100.00;101116.05;109098;1255;68869;-82
2023/01/28 07:51:40;;;;;;;24.70;10.30;;;;;;;-3.88;100.00;101113.59;109101;1255;74045;-82
2023/01/28 07:54:29;;;;;;;32.70;13.60;;;;;;;-3.82;100.00;101107.06;109142;1254;60049;-82
2023/01/28 07:57:22;;;;;;;33.10;15.00;;;;;;;-3.79;100.00;101107.20;109080;1257;60334;-82
2023/01/28 08:00:11;;;;;;;37.60;13.70;;;;;;;-3.70;100.00;101106.70;109200;1255;74845;-82
2023/01/28 08:03:03;;;;;;;32.30;13.60;;;;;;;-3.66;100.00;101100.59;109289;1256;69413;-82
2023/01/28 08:05:53;;;;;;;36.00;14.50;;;;;;;-3.63;100.00;101102.96;109098;1256;73584;-82
2023/01/28 08:08:42;;;;;;;37.30;14.40;;;;;;;-3.66;100.00;101102.07;109201;1255;59525;-82
2023/01/28 08:11:32;;;;;;;35.00;12.90;;;;;;;-3.60;100.00;101105.27;109122;1254;61116;-82
2023/01/28 08:14:20;;;;;;;31.40;12.10;;;;;;;-3.57;100.00;101106.03;109053;1254;74864;-82
2023/01/28 08:17:09;;;;;;;35.10;13.80;;;;;;;-3.51;100.00;101103.37;109161;1254;69872;-82
2023/01/28 08:19:58;;;;;;;36.10;12.40;;;;;;;-3.43;100.00;101106.59;108970;1256;72673;-82
2023/01/28 08:22:48;;;;;;;37.90;14.30;;;;;;;-3.35;100.00;101101.65;109276;1254;60919;-82
2023/01/28 08:25:37;;;;;;;30.30;12.10;;;;;;;-3.29;100.00;101097.48;109091;1254;61512;-82
2023/01/28 08:28:26;;;;;;;33.20;13.20;;;;;;;-3.23;100.00;101099.52;109053;1254;73812;-83
2023/01/28 08:31:15;;;;;;;31.20;13.10;;;;;;;-3.15;100.00;101104.52;109140;1254;68838;-83
2023/01/28 08:34:04;;;;;;;27.20;11.40;;;;;;;-3.06;100.00;101102.77;109121;1254;73535;-83
2023/01/28 08:36:52;;;;;;;31.20;11.80;;;;;;;-2.96;100.00;101095.23;108971;1254;60508;-83
2023/01/28 08:39:41;;;;;;;34.60;12.50;;;;;;;-2.89;100.00;101094.46;109174;1258;60021;-82
2023/01/28 08:42:35;;;;;;;29.00;12.40;;;;;;;-2.92;100.00;101092.51;109279;1254;74778;-83
2023/01/28 08:45:24;;;;;;;34.20;13.10;;;;;;;-2.79;100.00;101094.75;109130;1256;70194;-83
2023/01/28 08:48:16;;;;;;;30.60;12.90;;;;;;;-2.63;100.00;101091.61;109033;1256;73987;-83
2023/01/28 08:51:04;;;;;;;28.30;12.80;;;;;;;-2.53;100.00;101089.55;109237;1254;61116;-83
2023/01/28 08:53:53;;;;;;;37.20;15.60;;;;;;;-2.46;100.00;101086.06;109403;1254;61552;-82
2023/01/28 08:56:43;;;;;;;34.70;13.40;;;;;;;-2.51;100.00;101088.45;109199;1255;75101;-83
2023/01/28 08:59:32;;;;;;;27.30;12.50;;;;;;;-2.42;100.00;101090.95;109035;1260;69683;-83
2023/01/28 09:02:21;;;;;;;35.50;13.30;;;;;;;-2.32;100.00;101084.16;109231;1254;73896;-83
2023/01/28 09:05:20;;;;;;;31.70;11.90;;;;;;;-2.32;100.00;101070.70;108957;1256;60731;-83
2023/01/28 09:08:13;;;;;;;33.70;14.50;;;;;;;-2.34;100.00;101057.61;109077;1254;59470;-83
2023/01/28 09:11:02;;;;;;;32.20;14.00;;;;;;;-2.19;100.00;101053.31;109236;1255;74194;-83
2023/01/28 09:13:51;;;;;;;30.80;14.00;;;;;;;-2.03;100.00;101043.63;109209;1254;68801;-83
2023/01/28 09:16:40;;;;;;;32.80;14.20;;;;;;;-1.97;100.00;101048.03;109032;1254;73444;-83
2023/01/28 09:19:29;;;;;;;38.80;15.80;;;;;;;-1.93;100.00;101042.78;109269;1254;58611;-83
2023/01/28 09:22:18;;;;;;;27.70;11.50;;;;;;;-1.90;100.00;101039.13;109075;1255;61248;-83
2023/01/28 09:25:07;;;;;;;40.30;13.90;;;;;;;-1.82;100.00;101037.98;109006;1255;75055;-83
2023/01/28 09:27:57;;;;;;;30.40;14.20;;;;;;;-1.74;100.00;101039.36;109114;1255;69702;-83
2023/01/28 09:30:45;;;;;;;34.60;15.00;;;;;;;-1.67;100.00;101029.14;109058;1254;74304;-83
2023/01/28 09:33:35;;;;;;;30.70;13.00;;;;;;;-1.63;100.00;101031.61;109202;1255;62094;-83
2023/01/28 09:36:24;;;;;;;30.60;13.50;;;;;;;-1.56;100.00;101022.45;108989;1254;60358;-83
2023/01/28 09:39:12;;;;;;;29.70;13.60;;;;;;;-1.49;100.00;101014.42;109130;1254;74975;-83
2023/01/28 09:42:04;;;;;;;26.50;12.80;;;;;;;-1.40;100.00;101007.81;109066;1259;68799;-83
2023/01/28 09:45:01;;;;;;;31.50;12.40;;;;;;;-1.30;100.00;101004.73;109142;1254;73301;-83
2023/01/28 09:47:51;;;;;;;31.30;13.80;;;;;;;-1.23;100.00;101000.21;108978;1256;59763;-83
2023/01/28 09:50:45;;;;;;;30.20;12.50;;;;;;;-1.09;100.00;100999.48;109188;1256;61861;-83
2023/01/28 09:53:38;;;;;;;27.30;12.60;;;;;;;-0.92;100.00;101006.15;108929;1254;73866;-83
2023/01/28 09:56:32;;;;;;;25.80;9.90;;;;;;;-0.92;100.00;101003.34;109031;1256;68254;-83
2023/01/28 09:59:21;;;;;;;30.90;11.90;;;;;;;-1.21;100.00;101000.63;108889;1257;73768;-83
2023/01/28 12:08:33;;;;;;;30.80;12.60;;;;;;;-2.01;100.00;100913.13;105845;1289;601340;-83
2023/01/28 12:15:03;;;;;;;46.00;19.70;;;;;;;-1.99;100.00;100908.98;108534;1266;59849;-83
2023/01/28 12:17:58;;;;;;;34.30;13.90;;;;;;;-1.97;100.00;100904.67;108571;1266;72081;-83
2023/01/28 12:20:56;;;;;;;32.10;12.50;;;;;;;-1.97;100.00;100908.39;108506;1266;68864;-83
2023/01/28 12:23:54;;;;;;;28.60;11.50;;;;;;;-1.95;100.00;100911.67;108279;1265;71699;-83
2023/01/28 12:27:19;;;;;;;34.30;15.00;;;;;;;-1.91;100.00;100912.00;108664;1263;59394;-83
2023/01/28 12:30:18;;;;;;;51.30;21.30;;;;;;;-1.88;100.00;100913.29;108597;1263;60409;-83
2023/01/28 12:33:22;;;;;;;37.40;13.70;;;;;;;-1.86;100.00;100910.61;108658;1263;73409;-83
2023/01/28 12:36:15;;;;;;;38.10;15.20;;;;;;;-1.81;100.00;100907.73;108511;1263;68794;-83
2023/01/28 12:39:30;;;;;;;30.70;14.50;;;;;;;-1.78;100.00;100900.73;108577;1262;73871;-83
2023/01/28 12:42:42;;;;;;;26.90;11.20;;;;;;;-1.70;100.00;100905.11;108678;1263;60402;-83
2023/01/28 12:45:37;;;;;;;32.60;15.00;;;;;;;-1.57;100.00;100900.35;108719;1263;61424;-83
2023/01/28 12:48:33;;;;;;;36.80;14.20;;;;;;;-1.56;100.00;100895.84;108670;1263;73000;-83
2023/01/28 12:51:24;;;;;;;38.30;14.30;;;;;;;-1.49;100.00;100894.01;108569;1263;68783;-83
2023/01/28 12:54:18;;;;;;;34.20;14.30;;;;;;;-1.43;100.00;100890.61;108655;1263;73451;-83
2023/01/28 12:57:07;;;;;;;34.10;16.00;;;;;;;-1.42;100.00;100888.27;108622;1264;60950;-83
2023/01/28 12:59:58;;;;;;;29.60;12.90;;;;;;;-1.42;100.00;100888.84;108598;1263;61301;-83
2023/01/28 13:02:52;;;;;;;30.00;11.60;;;;;;;-1.40;100.00;100888.92;108663;1263;73084;-83
2023/01/28 13:05:45;;;;;;;37.10;15.60;;;;;;;-1.40;100.00;100893.37;108507;1262;68986;-83
2023/01/28 13:08:35;;;;;;;27.70;12.60;;;;;;;-1.40;100.00;100892.70;108608;1262;73838;-83
2023/01/28 13:11:24;;;;;;;27.90;13.50;;;;;;;-1.42;100.00;100887.00;108741;1262;59329;-83
2023/01/28 13:14:13;;;;;;;29.00;13.30;;;;;;;-1.41;100.00;100889.36;108582;1263;61239;-84
2023/01/28 13:17:09;;;;;;;35.00;14.80;;;;;;;-1.42;100.00;100882.34;108662;1262;72996;-83
2023/01/28 13:19:58;;;;;;;29.00;12.80;;;;;;;-1.44;100.00;100886.69;109452;1254;68531;-83
2023/01/28 13:22:47;;;;;;;27.30;11.50;;;;;;;-1.43;100.00;100891.56;109546;1254;72309;-83
2023/01/28 13:25:47;;;;;;;30.30;12.30;;;;;;;-1.42;100.00;100899.84;109417;1253;59586;-83
2023/01/28 13:28:35;;;;;;;26.50;11.70;;;;;;;-1.38;100.00;100896.94;109317;1253;59188;-83
2023/01/28 13:31:24;;;;;;;26.80;12.30;;;;;;;-1.41;100.00;100903.50;109411;1254;73042;-88
2023/01/28 13:34:35;;;;;;;27.10;10.70;;;;;;;-1.44;100.00;100905.08;109554;1252;69681;-83
2023/01/28 13:37:27;;;;;;;22.90;8.80;;;;;;;-1.46;100.00;100898.09;109393;1253;72366;-83
2023/01/28 13:40:27;;;;;;;23.00;9.50;;;;;;;-1.53;100.00;100908.23;109339;1255;59875;-83
2023/01/28 13:43:26;;;;;;;25.60;9.50;;;;;;;-1.51;100.00;100906.77;109457;1252;61170;-83
2023/01/28 13:46:28;;;;;;;22.40;9.10;;;;;;;-1.52;100.00;100909.56;109412;1253;73972;-83
2023/01/28 13:49:44;;;;;;;26.30;9.80;;;;;;;-1.53;100.00;100906.70;109277;1253;69497;-83
2023/01/28 13:52:36;;;;;;;24.30;9.70;;;;;;;-1.53;100.00;100907.87;109429;1254;72447;-83
2023/01/28 13:55:28;;;;;;;27.90;11.30;;;;;;;-1.56;100.00;100908.80;109211;1254;60825;-83
2023/01/28 13:59:01;;;;;;;31.80;13.20;;;;;;;-1.61;100.00;100907.36;109318;1253;60369;-83
2023/01/28 14:02:02;;;;;;;33.30;11.60;;;;;;;-1.73;100.00;100909.90;109244;1254;72721;-83
2023/01/28 14:04:50;;;;;;;33.40;12.00;;;;;;;-1.78;100.00;100910.86;109503;1254;68780;-83
2023/01/28 14:08:01;;;;;;;33.50;12.90;;;;;;;-1.83;100.00;100909.23;109371;1253;73516;-83
2023/01/28 14:10:58;;;;;;;36.60;12.40;;;;;;;-1.91;100.00;100910.86;109394;1255;59201;-83
2023/01/28 14:14:17;;;;;;;31.90;10.40;;;;;;;-1.94;100.00;100910.94;109451;1253;61848;-83
2023/01/28 14:17:13;;;;;;;27.70;12.20;;;;;;;-1.93;100.00;100909.35;109378;1253;73967;-83
2023/01/28 14:20:03;;;;;;;34.60;15.40;;;;;;;-1.87;100.00;100912.52;109318;1252;68647;-83
2023/01/28 14:22:58;;;;;;;32.20;15.20;;;;;;;-1.84;100.00;100912.73;109373;1256;73942;-83
2023/01/28 14:25:47;;;;;;;36.10;13.60;;;;;;;-1.77;100.00;100912.56;109389;1253;59964;-83
2023/01/28 14:28:40;;;;;;;31.60;10.90;;;;;;;-1.72;100.00;100913.28;109407;1253;59945;-83
2023/01/28 14:31:34;;;;;;;27.90;11.90;;;;;;;-1.73;100.00;100905.89;109272;1254;74145;-83
2023/01/28 14:34:26;;;;;;;23.90;10.50;;;;;;;-1.70;100.00;100905.52;109470;1253;67754;-83
2023/01/28 14:37:17;;;;;;;25.10;10.50;;;;;;;-1.69;100.00;100907.95;109426;1253;72386;-83
2023/01/28 14:40:07;;;;;;;30.20;12.60;;;;;;;-1.73;100.00;100906.68;109386;1254;60686;-83
2023/01/28 14:42:56;;;;;;;30.70;11.40;;;;;;;-1.83;100.00;100905.44;109256;1253;59984;-83
2023/01/28 14:45:47;;;;;;;26.60;10.10;;;;;;;-1.90;100.00;100908.24;109355;1253;72545;-83
2023/01/28 14:49:01;;;;;;;31.40;12.70;;;;;;;-1.93;100.00;100908.52;109457;1252;68442;-83
2023/01/28 14:52:28;;;;;;;36.50;14.20;;;;;;;-2.00;100.00;100908.28;109371;1253;71750;-83
2023/01/28 14:55:22;;;;;;;37.80;16.80;;;;;;;-2.06;100.00;100906.00;109461;1252;60243;-83
2023/01/28 14:58:23;;;;;;;36.50;15.80;;;;;;;-2.07;100.00;100908.13;109412;1252;61139;-83
2023/01/28 15:01:26;;;;;;;33.90;15.90;;;;;;;-2.08;100.00;100911.00;109249;1256;74150;-83
2023/01/28 15:04:29;;;;;;;31.30;13.50;;;;;;;-2.14;100.00;100917.93;109411;1254;68492;-83
2023/01/28 15:07:19;;;;;;;31.20;12.50;;;;;;;-2.19;100.00;100914.65;109473;1254;72650;-83
2023/01/28 15:10:31;;;;;;;32.40;12.60;;;;;;;-2.27;100.00;100913.14;109360;1252;59222;-83
2023/01/28 15:13:24;;;;;;;27.70;11.80;;;;;;;-2.36;100.00;100914.81;109415;1253;61348;-83
2023/01/28 15:16:19;;;;;;;31.70;12.40;;;;;;;-2.40;100.00;100915.52;109380;1254;73733;-83
2023/01/28 15:19:08;;;;;;;31.70;12.00;;;;;;;-2.47;100.00;100916.61;109398;1254;68391;-83
2023/01/28 15:22:03;;;;;;;57.10;18.20;;;;;;;-2.53;100.00;100923.33;109282;1253;74080;-83
2023/01/28 15:24:52;;;;;;;56.40;19.90;;;;;;;-2.59;100.00;100919.42;109244;1253;59298;-83
2023/01/28 15:27:41;;;;;;;34.10;14.60;;;;;;;-2.58;100.00;100923.77;109392;1251;60787;-83
2023/01/28 15:30:30;;;;;;;46.40;20.90;;;;;;;-2.58;100.00;100923.61;109430;1252;73060;-83
2023/01/28 15:33:20;;;;;;;42.30;19.30;;;;;;;-2.61;100.00;100927.40;109322;1256;69517;-83
2023/01/28 15:36:09;;;;;;;41.10;17.30;;;;;;;-2.61;100.00;100930.25;109527;1253;73761;-83